^^

Meteo Aereoporti Centro-Italia

 

 
LIRZ - Perugia S.Egidio (208 m.)
Dati ricevuti: 08/12/2021 22:20
Pioggia, Foschia, Molto Nuvoloso
Pioggia, Foschia, Molto Nuvoloso
 Vento da NNW
Vento: NNW 6 km/h
TEMPERATURA: 9°C
P.to di Rugiada: 9°C
Umidità: 100%
Pressione: 999 hPa
Condizioni generali: Pioggia, Foschia
Nuvole: Molto nuvoloso
Visibilità: 5 km
Dettagli Nuvole: Qualche nuvola 91 m
Molto nuvoloso 518 m
Molto nuvoloso 975 m
2021/12/08 21:20 LIRZ 082120Z AUTO 34003KT 270V050 4900 RA BR FEW003/// BKN017/// BKN032/// 09/09 Q0999
 
LIPY - Ancona Falconara (12 m.)
Dati ricevuti: 08/12/2021 22:20
Pioggia debole
Pioggia debole
 Vento da SSE
Vento: SSE 7 km/h
TEMPERATURA: 9°C
Raffreddamento da Vento: 8°C
P.to di Rugiada: 8°C
Umidità: 94%
Pressione: 999 hPa
Condizioni generali: Pioggia debole
Visibilità: 10 km
2021/12/08 21:20 LIPY 082120Z AUTO 16004KT 9999 -RA ///////// 09/08 Q0999
 
LIPR - Rimini Miramare (12 m.)
Dati ricevuti: 08/12/2021 22:20
Pioggia debole, Foschia, Molto Nuvoloso
Pioggia debole, Foschia, Molto Nuvoloso
 Vento da WNW
Vento: WNW 19 km/h
TEMPERATURA: 5°C
Raffreddamento da Vento: 1°C
P.to di Rugiada: 4°C
Umidità: 93%
Pressione: 1000 hPa
Condizioni generali: Pioggia debole, Foschia
Nuvole: Molto nuvoloso
Visibilità: 3 km
Dettagli Nuvole: Qualche nuvola 122 m
Molto nuvoloso 1311 m
2021/12/08 21:20 LIPR 082120Z AUTO 30010KT 2800 -RA BR FEW004/// BKN043/// 05/04 Q1000
 
LIRF - Roma Fiumicino (2 m.)
Dati ricevuti: 08/12/2021 22:20
Poco nuvoloso
Poco nuvoloso
 Vento da SW
Vento: SW 33 km/h
TEMPERATURA: 14°C
P.to di Rugiada: 9°C
Umidità: 72%
Pressione: 1001 hPa
Nuvole: Poco nuvoloso
Visibilità: 10 km
Dettagli Nuvole: Poco nuvoloso 762 m
2021/12/08 21:20 LIRF 082120Z 23018KT 9999 SCT025 14/09 Q1001 NOSIG
 
LIRA - Roma Ciampino (129 m.)
Dati ricevuti: 08/12/2021 22:20
Qualche nuvola
Qualche nuvola
 Vento da S
Vento: S 11 km/h
TEMPERATURA: 12°C
P.to di Rugiada: 9°C
Umidità: 82%
Pressione: 1002 hPa
Nuvole: Qualche nuvola
Visibilità: 10 km
Dettagli Nuvole: Qualche nuvola 762 m
2021/12/08 21:20 LIRA 082120Z 19006KT 9999 FEW025 12/09 Q1002
 
LIRU - Roma Urbe (17 m.)
Dati ricevuti: 08/12/2021 16:50
Dati non aggiornati
Pioggia, Coperto
Pioggia, Coperto
 Vento da SE
Vento: SE 13 km/h
TEMPERATURA: 10°C
Raffreddamento da Vento: 8°C
P.to di Rugiada: 8°C
Umidità: 88%
Pressione: 1002 hPa
Condizioni generali: Pioggia
Nuvole: Coperto
Visibilità: 5 km
Dettagli Nuvole: Molto nuvoloso 762 m
Coperto 1219 m
2021/12/08 15:50 LIRU 081550Z 13007KT 090V170 5000 RA BKN025 OVC040 10/08 Q1002
 
LIVF - Frontone (570 m.)
Dati ricevuti: 08/12/2021 13:55
Dati non aggiornati
Poco nuvoloso
Poco nuvoloso
 Vento da SSE
Vento: SSE 31 km/h, Raffica: 80 km/h
TEMPERATURA: 9°C
Raffreddamento da Vento: 5°C
P.to di Rugiada: 5°C
Umidità: 76%
Pressione: 1000 hPa
Nuvole: Poco nuvoloso
Visibilità: 10 km
Dettagli Nuvole: Poco nuvoloso 762 m
Poco nuvoloso 914 m
2021/12/08 12:55 LIVF 081255Z 15017G43KT 9999 SCT025 SCT030 09/05 Q1000
 
LIRQ - Firenze Peretola (40 m.)
Dati ricevuti: 08/12/2021 22:20
Foschia, Poco nuvoloso
Foschia, Poco nuvoloso
 Vento da E
Vento: E 7 km/h
TEMPERATURA: 6°C
Raffreddamento da Vento: 4°C
P.to di Rugiada: 6°C
Umidità: 100%
Pressione: 999 hPa
Condizioni generali: Foschia
Nuvole: Poco nuvoloso
Visibilità: 2 km
Dettagli Nuvole: Poco nuvoloso 152 m
2021/12/08 21:20 LIRQ 082120Z 08004KT 2000 R05/1400D BR SCT005 06/06 Q0999
 
LIBP - Pescara (10 m.)
Dati ricevuti: 08/12/2021 22:20
Pioggia intensa, Coperto
Pioggia intensa, Coperto
 Vento da WSW
Vento: WSW 7 km/h
TEMPERATURA: 9°C
Raffreddamento da Vento: 8°C
P.to di Rugiada: 8°C
Umidità: 94%
Pressione: 1001 hPa
Condizioni generali: Pioggia intensa
Nuvole: Coperto
Visibilità: 8 km
Dettagli Nuvole: Coperto 1676 m
2021/12/08 21:20 LIBP 082120Z AUTO 24004KT 8000 +RA OVC055/// 09/08 Q1001
 
LIRV - Viterbo (300 m.)
Dati ricevuti: 08/12/2021 17:55
Dati non aggiornati
Pioggia debole, Molto Nuvoloso
Pioggia debole, Molto Nuvoloso
 Vento da S
Vento: S 24 km/h
TEMPERATURA: 9°C
Raffreddamento da Vento: 6°C
P.to di Rugiada: 7°C
Umidità: 87%
Pressione: 1000 hPa
Condizioni generali: Pioggia debole
Nuvole: Molto nuvoloso
Visibilità: 10 km
Dettagli Nuvole: Poco nuvoloso 457 m
Qualche nuvola 610 m
Molto nuvoloso 792 m
2021/12/08 16:55 LIRV 081655Z 19013KT 9999 -RA SCT015 FEW020CB BKN026 09/07 Q1000
 
LIQN - Rieti (389 m.)
Dati ricevuti: 08/12/2021 16:50
Dati non aggiornati
Pioggia, Molto Nuvoloso
Pioggia, Molto Nuvoloso
 Vento da SE
Vento: SE 17 km/h
TEMPERATURA: 8°C
Raffreddamento da Vento: 5°C
P.to di Rugiada: 7°C
Umidità: 93%
Pressione: 1003 hPa
Condizioni generali: Pioggia
Nuvole: Molto nuvoloso
Visibilità: 4 km
Dettagli Nuvole: Molto nuvoloso 1067 m
2021/12/08 15:50 LIQN 081550Z 13009KT 4000 RA BKN035 08/07 Q1003
 
LIRG - Guidonia -RM- (88 m.)
Dati ricevuti: 07/12/2021 18:55
Dati non aggiornati
Sereno
Sereno
 Vento da NNE
Vento: NNE 7 km/h
TEMPERATURA: 3°C
Raffreddamento da Vento: 1°C
P.to di Rugiada: -4°C
Umidità: 60%
Pressione: 1014 hPa
Condizioni generali: Sereno
Visibilità: oltre 10 km
2021/12/07 17:55 LIRG 071755Z 02004KT CAVOK 03/M04 Q1014
 
LIRK - Terminillo -RI-(1874 m.)
Dati ricevuti: 08/12/2021 21:55

 Vento da W
Vento: W 28 km/h
TEMPERATURA: 0°C
Raffreddamento da Vento: -6°C
P.to di Rugiada: -1°C
Umidità: 93%
Pressione: 1000 hPa
2021/12/08 20:55 LIRK 082055Z AUTO 28015KT 160V310 //// M00/M01 Q1000
 
LIPK - Forlì (27 m.)
Dati ricevuti: 08/12/2021 21:50
Foschia, Molto Nuvoloso
Foschia, Molto Nuvoloso
 Vento da direzione variabile
Vento: direzione variabile 4 km/h
TEMPERATURA: 4°C
P.to di Rugiada: 2°C
Umidità: 87%
Pressione: 999 hPa
Condizioni generali: Foschia
Nuvole: Molto nuvoloso
Visibilità: 4 km
Dettagli Nuvole: Molto nuvoloso 1219 m
2021/12/08 20:50 LIPK 082050Z VRB02KT 4000 BR BKN040 04/02 Q0999
 
LIRS - Grosseto (5 m.)
Dati ricevuti: 08/12/2021 21:55
Pioggia debole, Molto Nuvoloso
Pioggia debole, Molto Nuvoloso
 Vento da ENE
Vento: ENE 7 km/h
TEMPERATURA: 10°C
Raffreddamento da Vento: 9°C
P.to di Rugiada: 7°C
Umidità: 82%
Pressione: 999 hPa
Condizioni generali: Pioggia debole
Nuvole: Molto nuvoloso
Visibilità: 6 km
Dettagli Nuvole: Qualche nuvola 457 m
Molto nuvoloso 914 m
2021/12/08 20:55 LIRS 082055Z 07004KT 6000 -RA FEW015 BKN030 10/07 Q0999
 
LIRP - Pisa S.Giusto (2 m.)
Dati ricevuti: 08/12/2021 22:15
Molto nuvoloso
Molto nuvoloso
 Vento da SE
Vento: SE 9 km/h
TEMPERATURA: 5°C
Raffreddamento da Vento: 3°C
P.to di Rugiada: 5°C
Umidità: 100%
Pressione: 998 hPa
Nuvole: Molto nuvoloso
Visibilità: 10 km
Dettagli Nuvole: Molto nuvoloso 1219 m
2021/12/08 21:15 LIRP 082115Z 13005KT 9999 BKN040 05/05 Q0998 NOSIG